sensor_id;sensor_type;location;lat;lon;timestamp;temperature;humidity
10968;DHT22;5536;49.602;10.980;2023-11-18T00:00:49;2.50;99.90
10968;DHT22;5536;49.602;10.980;2023-11-18T00:03:16;2.30;99.90
10968;DHT22;5536;49.602;10.980;2023-11-18T00:05:43;2.50;99.90
10968;DHT22;5536;49.602;10.980;2023-11-18T00:08:11;2.30;99.90
10968;DHT22;5536;49.602;10.980;2023-11-18T00:10:39;2.20;99.90
10968;DHT22;5536;49.602;10.980;2023-11-18T00:13:08;2.10;99.90
10968;DHT22;5536;49.602;10.980;2023-11-18T00:15:35;2.20;99.90
10968;DHT22;5536;49.602;10.980;2023-11-18T00:18:02;2.30;99.90
10968;DHT22;5536;49.602;10.980;2023-11-18T00:20:29;2.30;99.90
10968;DHT22;5536;49.602;10.980;2023-11-18T00:22:57;2.20;99.90
10968;DHT22;5536;49.602;10.980;2023-11-18T00:25:26;2.10;99.90
10968;DHT22;5536;49.602;10.980;2023-11-18T00:27:53;2.20;99.90
10968;DHT22;5536;49.602;10.980;2023-11-18T00:30:20;2.30;99.90
10968;DHT22;5536;49.602;10.980;2023-11-18T00:32:47;2.30;99.90
10968;DHT22;5536;49.602;10.980;2023-11-18T00:35:14;2.20;99.90
10968;DHT22;5536;49.602;10.980;2023-11-18T00:37:41;2.00;99.90
10968;DHT22;5536;49.602;10.980;2023-11-18T00:40:09;2.00;99.90
10968;DHT22;5536;49.602;10.980;2023-11-18T00:42:38;2.00;99.90
10968;DHT22;5536;49.602;10.980;2023-11-18T00:45:09;2.00;99.90
10968;DHT22;5536;49.602;10.980;2023-11-18T00:47:38;1.80;99.90
10968;DHT22;5536;49.602;10.980;2023-11-18T00:50:09;1.70;99.90
10968;DHT22;5536;49.602;10.980;2023-11-18T00:52:36;1.60;99.90
10968;DHT22;5536;49.602;10.980;2023-11-18T00:55:07;1.60;99.90
10968;DHT22;5536;49.602;10.980;2023-11-18T00:57:37;1.70;99.90
10968;DHT22;5536;49.602;10.980;2023-11-18T01:00:07;1.60;99.90
10968;DHT22;5536;49.602;10.980;2023-11-18T01:02:35;1.60;99.90
10968;DHT22;5536;49.602;10.980;2023-11-18T01:05:04;1.80;99.90
10968;DHT22;5536;49.602;10.980;2023-11-18T01:07:32;2.00;99.90
10968;DHT22;5536;49.602;10.980;2023-11-18T01:09:59;2.00;99.90
10968;DHT22;5536;49.602;10.980;2023-11-18T01:12:26;2.00;99.90
10968;DHT22;5536;49.602;10.980;2023-11-18T01:14:55;1.80;99.90
10968;DHT22;5536;49.602;10.980;2023-11-18T01:17:22;1.60;99.90
10968;DHT22;5536;49.602;10.980;2023-11-18T01:19:49;1.50;99.90
10968;DHT22;5536;49.602;10.980;2023-11-18T01:22:16;1.70;99.90
10968;DHT22;5536;49.602;10.980;2023-11-18T01:24:44;1.70;99.90
10968;DHT22;5536;49.602;10.980;2023-11-18T01:27:11;1.60;99.90
10968;DHT22;5536;49.602;10.980;2023-11-18T01:29:38;1.70;99.90
10968;DHT22;5536;49.602;10.980;2023-11-18T01:32:07;1.70;99.90
10968;DHT22;5536;49.602;10.980;2023-11-18T01:34:35;1.50;99.90
10968;DHT22;5536;49.602;10.980;2023-11-18T01:37:04;1.30;99.90
10968;DHT22;5536;49.602;10.980;2023-11-18T01:39:32;1.20;99.90
10968;DHT22;5536;49.602;10.980;2023-11-18T01:42:00;1.30;99.90
10968;DHT22;5536;49.602;10.980;2023-11-18T01:44:28;1.50;99.90
10968;DHT22;5536;49.602;10.980;2023-11-18T01:46:55;1.30;99.90
10968;DHT22;5536;49.602;10.980;2023-11-18T01:49:25;1.30;99.90
10968;DHT22;5536;49.602;10.980;2023-11-18T01:51:53;1.50;99.90
10968;DHT22;5536;49.602;10.980;2023-11-18T01:54:22;1.50;99.90
10968;DHT22;5536;49.602;10.980;2023-11-18T01:56:49;1.50;99.90
10968;DHT22;5536;49.602;10.980;2023-11-18T01:59:17;1.30;99.90
10968;DHT22;5536;49.602;10.980;2023-11-18T02:01:46;1.00;99.90
10968;DHT22;5536;49.602;10.980;2023-11-18T02:04:15;1.00;99.90
10968;DHT22;5536;49.602;10.980;2023-11-18T02:06:48;0.90;99.90
10968;DHT22;5536;49.602;10.980;2023-11-18T02:09:15;0.70;99.90
10968;DHT22;5536;49.602;10.980;2023-11-18T02:11:47;0.80;99.90
10968;DHT22;5536;49.602;10.980;2023-11-18T02:14:20;0.90;99.90
10968;DHT22;5536;49.602;10.980;2023-11-18T02:16:52;0.80;99.90
10968;DHT22;5536;49.602;10.980;2023-11-18T02:19:20;0.80;99.90
10968;DHT22;5536;49.602;10.980;2023-11-18T02:21:50;1.10;99.90
10968;DHT22;5536;49.602;10.980;2023-11-18T02:24:27;1.20;99.90
10968;DHT22;5536;49.602;10.980;2023-11-18T02:26:58;1.10;99.90
10968;DHT22;5536;49.602;10.980;2023-11-18T02:29:27;1.10;99.90
10968;DHT22;5536;49.602;10.980;2023-11-18T02:31:58;1.30;99.90
10968;DHT22;5536;49.602;10.980;2023-11-18T02:34:32;1.30;99.90
10968;DHT22;5536;49.602;10.980;2023-11-18T02:37:01;1.60;99.90
10968;DHT22;5536;49.602;10.980;2023-11-18T02:39:36;1.80;99.90
10968;DHT22;5536;49.602;10.980;2023-11-18T02:42:08;1.80;99.90
10968;DHT22;5536;49.602;10.980;2023-11-18T02:44:38;1.60;99.90
10968;DHT22;5536;49.602;10.980;2023-11-18T02:47:05;1.50;99.90
10968;DHT22;5536;49.602;10.980;2023-11-18T02:49:32;1.50;99.90
10968;DHT22;5536;49.602;10.980;2023-11-18T02:52:00;1.40;99.90
10968;DHT22;5536;49.602;10.980;2023-11-18T02:54:28;1.20;99.90
10968;DHT22;5536;49.602;10.980;2023-11-18T02:56:55;1.10;99.90
10968;DHT22;5536;49.602;10.980;2023-11-18T02:59:23;1.10;99.90
10968;DHT22;5536;49.602;10.980;2023-11-18T03:01:53;0.90;99.90
10968;DHT22;5536;49.602;10.980;2023-11-18T03:04:21;0.80;99.90
10968;DHT22;5536;49.602;10.980;2023-11-18T03:06:49;0.60;99.90
10968;DHT22;5536;49.602;10.980;2023-11-18T03:09:17;0.40;99.90
10968;DHT22;5536;49.602;10.980;2023-11-18T03:11:44;0.30;99.90
10968;DHT22;5536;49.602;10.980;2023-11-18T03:14:11;0.20;99.90
10968;DHT22;5536;49.602;10.980;2023-11-18T03:16:48;0.30;99.90
10968;DHT22;5536;49.602;10.980;2023-11-18T03:19:15;0.30;99.90
10968;DHT22;5536;49.602;10.980;2023-11-18T03:21:42;0.30;99.90
10968;DHT22;5536;49.602;10.980;2023-11-18T03:24:09;0.30;99.90
10968;DHT22;5536;49.602;10.980;2023-11-18T03:26:36;0.40;99.90
10968;DHT22;5536;49.602;10.980;2023-11-18T03:29:03;0.30;99.90
10968;DHT22;5536;49.602;10.980;2023-11-18T03:31:30;0.50;99.90
10968;DHT22;5536;49.602;10.980;2023-11-18T03:33:59;0.50;99.90
10968;DHT22;5536;49.602;10.980;2023-11-18T03:36:26;0.60;99.90
10968;DHT22;5536;49.602;10.980;2023-11-18T03:38:53;0.70;99.90
10968;DHT22;5536;49.602;10.980;2023-11-18T03:41:20;0.80;99.90
10968;DHT22;5536;49.602;10.980;2023-11-18T03:43:49;0.80;99.90
10968;DHT22;5536;49.602;10.980;2023-11-18T03:46:16;1.10;99.90
10968;DHT22;5536;49.602;10.980;2023-11-18T03:48:44;1.10;99.90
10968;DHT22;5536;49.602;10.980;2023-11-18T03:51:13;1.10;99.90
10968;DHT22;5536;49.602;10.980;2023-11-18T03:53:42;1.00;99.90
10968;DHT22;5536;49.602;10.980;2023-11-18T03:56:09;0.90;99.90
10968;DHT22;5536;49.602;10.980;2023-11-18T03:58:36;1.00;99.90
10968;DHT22;5536;49.602;10.980;2023-11-18T04:01:03;0.80;99.90
10968;DHT22;5536;49.602;10.980;2023-11-18T04:03:31;0.90;99.90
10968;DHT22;5536;49.602;10.980;2023-11-18T04:05:58;0.80;99.90
10968;DHT22;5536;49.602;10.980;2023-11-18T04:08:27;0.80;99.90
10968;DHT22;5536;49.602;10.980;2023-11-18T04:10:54;0.70;99.90
10968;DHT22;5536;49.602;10.980;2023-11-18T04:13:21;0.70;99.90
10968;DHT22;5536;49.602;10.980;2023-11-18T04:15:48;0.70;99.90
10968;DHT22;5536;49.602;10.980;2023-11-18T04:18:14;1.00;99.90
10968;DHT22;5536;49.602;10.980;2023-11-18T04:20:41;1.00;99.90
10968;DHT22;5536;49.602;10.980;2023-11-18T04:23:09;1.10;99.90
10968;DHT22;5536;49.602;10.980;2023-11-18T04:25:38;1.10;99.90
10968;DHT22;5536;49.602;10.980;2023-11-18T04:28:05;1.20;99.90
10968;DHT22;5536;49.602;10.980;2023-11-18T04:30:32;1.20;99.90
10968;DHT22;5536;49.602;10.980;2023-11-18T04:32:59;1.10;99.90
10968;DHT22;5536;49.602;10.980;2023-11-18T04:35:27;1.10;99.90
10968;DHT22;5536;49.602;10.980;2023-11-18T04:37:53;1.00;99.90
10968;DHT22;5536;49.602;10.980;2023-11-18T04:40:20;0.60;99.90
10968;DHT22;5536;49.602;10.980;2023-11-18T04:42:50;0.50;99.90
10968;DHT22;5536;49.602;10.980;2023-11-18T04:45:17;0.40;99.90
10968;DHT22;5536;49.602;10.980;2023-11-18T04:47:44;0.30;99.90
10968;DHT22;5536;49.602;10.980;2023-11-18T04:50:11;0.20;99.90
10968;DHT22;5536;49.602;10.980;2023-11-18T04:52:38;0.00;99.90
10968;DHT22;5536;49.602;10.980;2023-11-18T04:55:05;-0.10;99.90
10968;DHT22;5536;49.602;10.980;2023-11-18T04:57:32;-0.20;99.90
10968;DHT22;5536;49.602;10.980;2023-11-18T05:00:01;-0.30;99.90
10968;DHT22;5536;49.602;10.980;2023-11-18T05:02:36;-0.30;99.90
10968;DHT22;5536;49.602;10.980;2023-11-18T05:05:03;-0.20;99.90
10968;DHT22;5536;49.602;10.980;2023-11-18T05:07:31;-0.30;99.90
10968;DHT22;5536;49.602;10.980;2023-11-18T05:09:58;-0.40;99.90
10968;DHT22;5536;49.602;10.980;2023-11-18T05:12:26;-0.40;99.90
10968;DHT22;5536;49.602;10.980;2023-11-18T05:14:55;-0.50;99.90
10968;DHT22;5536;49.602;10.980;2023-11-18T05:17:24;-0.30;99.90
10968;DHT22;5536;49.602;10.980;2023-11-18T05:19:51;-0.20;99.90
10968;DHT22;5536;49.602;10.980;2023-11-18T05:22:19;-0.20;99.90
10968;DHT22;5536;49.602;10.980;2023-11-18T05:24:46;-0.30;99.90
10968;DHT22;5536;49.602;10.980;2023-11-18T05:27:13;-0.10;99.90
10968;DHT22;5536;49.602;10.980;2023-11-18T05:29:40;0.00;99.90
10968;DHT22;5536;49.602;10.980;2023-11-18T05:32:08;-0.20;99.90
10968;DHT22;5536;49.602;10.980;2023-11-18T05:34:36;-0.30;99.90
10968;DHT22;5536;49.602;10.980;2023-11-18T05:37:03;-0.10;99.90
10968;DHT22;5536;49.602;10.980;2023-11-18T05:39:33;0.20;99.90
10968;DHT22;5536;49.602;10.980;2023-11-18T05:42:08;0.40;99.90
10968;DHT22;5536;49.602;10.980;2023-11-18T05:44:36;0.40;99.90
10968;DHT22;5536;49.602;10.980;2023-11-18T05:47:05;0.20;99.90
10968;DHT22;5536;49.602;10.980;2023-11-18T05:49:32;0.20;99.90
10968;DHT22;5536;49.602;10.980;2023-11-18T05:52:01;-0.10;99.90
10968;DHT22;5536;49.602;10.980;2023-11-18T05:54:28;0.10;99.90
10968;DHT22;5536;49.602;10.980;2023-11-18T05:56:54;0.20;99.90
10968;DHT22;5536;49.602;10.980;2023-11-18T05:59:21;0.20;99.90
10968;DHT22;5536;49.602;10.980;2023-11-18T06:01:49;0.20;99.90
10968;DHT22;5536;49.602;10.980;2023-11-18T06:04:16;0.50;99.90
10968;DHT22;5536;49.602;10.980;2023-11-18T06:06:43;0.60;99.90
10968;DHT22;5536;49.602;10.980;2023-11-18T06:09:12;0.80;99.90
10968;DHT22;5536;49.602;10.980;2023-11-18T06:11:46;0.80;99.90
10968;DHT22;5536;49.602;10.980;2023-11-18T06:14:15;0.80;99.90
10968;DHT22;5536;49.602;10.980;2023-11-18T06:16:42;0.80;99.90
10968;DHT22;5536;49.602;10.980;2023-11-18T06:19:09;0.50;99.90
10968;DHT22;5536;49.602;10.980;2023-11-18T06:21:36;0.60;99.90
10968;DHT22;5536;49.602;10.980;2023-11-18T06:24:04;0.60;99.90
10968;DHT22;5536;49.602;10.980;2023-11-18T06:26:33;0.50;99.90
10968;DHT22;5536;49.602;10.980;2023-11-18T06:29:01;0.30;99.90
10968;DHT22;5536;49.602;10.980;2023-11-18T06:31:29;0.10;99.90
10968;DHT22;5536;49.602;10.980;2023-11-18T06:33:56;0.20;99.90
10968;DHT22;5536;49.602;10.980;2023-11-18T06:36:23;0.10;99.90
10968;DHT22;5536;49.602;10.980;2023-11-18T06:38:53;0.20;99.90
10968;DHT22;5536;49.602;10.980;2023-11-18T06:41:22;0.20;99.90
10968;DHT22;5536;49.602;10.980;2023-11-18T06:43:52;0.20;99.90
10968;DHT22;5536;49.602;10.980;2023-11-18T06:46:27;0.30;99.90
10968;DHT22;5536;49.602;10.980;2023-11-18T06:48:57;0.30;99.90
10968;DHT22;5536;49.602;10.980;2023-11-18T06:51:26;0.00;99.90
10968;DHT22;5536;49.602;10.980;2023-11-18T06:53:54;-0.10;99.90
10968;DHT22;5536;49.602;10.980;2023-11-18T06:56:21;-0.10;99.90
10968;DHT22;5536;49.602;10.980;2023-11-18T06:58:48;-0.30;99.90
10968;DHT22;5536;49.602;10.980;2023-11-18T07:01:17;-0.40;99.90
10968;DHT22;5536;49.602;10.980;2023-11-18T07:03:45;-0.50;99.90
10968;DHT22;5536;49.602;10.980;2023-11-18T07:06:17;-0.40;99.90
10968;DHT22;5536;49.602;10.980;2023-11-18T07:08:47;-0.20;99.90
10968;DHT22;5536;49.602;10.980;2023-11-18T07:11:15;-0.30;99.90
10968;DHT22;5536;49.602;10.980;2023-11-18T07:13:42;-0.40;99.90
10968;DHT22;5536;49.602;10.980;2023-11-18T07:16:09;-0.20;99.90
10968;DHT22;5536;49.602;10.980;2023-11-18T07:18:38;-0.20;99.90
10968;DHT22;5536;49.602;10.980;2023-11-18T07:21:05;-0.20;99.90
10968;DHT22;5536;49.602;10.980;2023-11-18T07:23:33;0.00;99.90
10968;DHT22;5536;49.602;10.980;2023-11-18T07:26:00;0.20;99.90
10968;DHT22;5536;49.602;10.980;2023-11-18T07:28:29;0.20;99.90
10968;DHT22;5536;49.602;10.980;2023-11-18T07:30:56;0.40;99.90
10968;DHT22;5536;49.602;10.980;2023-11-18T07:33:25;0.50;99.90
10968;DHT22;5536;49.602;10.980;2023-11-18T07:35:53;0.20;99.90
10968;DHT22;5536;49.602;10.980;2023-11-18T07:38:20;0.20;99.90
10968;DHT22;5536;49.602;10.980;2023-11-18T07:40:47;0.30;99.90
10968;DHT22;5536;49.602;10.980;2023-11-18T07:43:15;0.40;99.90
10968;DHT22;5536;49.602;10.980;2023-11-18T07:45:42;0.60;99.90
10968;DHT22;5536;49.602;10.980;2023-11-18T07:48:09;0.80;99.90
10968;DHT22;5536;49.602;10.980;2023-11-18T07:50:38;0.90;99.90
10968;DHT22;5536;49.602;10.980;2023-11-18T07:53:08;1.10;99.90
10968;DHT22;5536;49.602;10.980;2023-11-18T07:55:35;1.30;99.90
10968;DHT22;5536;49.602;10.980;2023-11-18T07:58:05;1.50;99.90
10968;DHT22;5536;49.602;10.980;2023-11-18T08:00:36;1.60;99.90
10968;DHT22;5536;49.602;10.980;2023-11-18T08:03:04;1.70;99.90
10968;DHT22;5536;49.602;10.980;2023-11-18T08:05:32;1.80;99.90
10968;DHT22;5536;49.602;10.980;2023-11-18T08:08:02;2.00;99.90
10968;DHT22;5536;49.602;10.980;2023-11-18T08:10:31;2.00;99.90
10968;DHT22;5536;49.602;10.980;2023-11-18T08:12:58;2.00;99.90
10968;DHT22;5536;49.602;10.980;2023-11-18T08:15:26;2.00;99.90
10968;DHT22;5536;49.602;10.980;2023-11-18T08:17:55;1.80;99.90
10968;DHT22;5536;49.602;10.980;2023-11-18T08:20:22;1.80;99.90
10968;DHT22;5536;49.602;10.980;2023-11-18T08:22:50;1.70;99.90
10968;DHT22;5536;49.602;10.980;2023-11-18T08:25:18;1.80;99.90
10968;DHT22;5536;49.602;10.980;2023-11-18T08:27:47;1.90;99.90
10968;DHT22;5536;49.602;10.980;2023-11-18T08:30:15;2.00;99.90
10968;DHT22;5536;49.602;10.980;2023-11-18T08:32:48;2.10;99.90
10968;DHT22;5536;49.602;10.980;2023-11-18T08:35:15;2.20;99.90
10968;DHT22;5536;49.602;10.980;2023-11-18T08:37:43;2.20;99.90
10968;DHT22;5536;49.602;10.980;2023-11-18T08:40:12;2.10;99.90
10968;DHT22;5536;49.602;10.980;2023-11-18T08:42:42;2.10;99.90
10968;DHT22;5536;49.602;10.980;2023-11-18T08:45:15;2.20;99.90
10968;DHT22;5536;49.602;10.980;2023-11-18T08:47:44;2.20;99.90
10968;DHT22;5536;49.602;10.980;2023-11-18T08:50:13;2.10;99.90
10968;DHT22;5536;49.602;10.980;2023-11-18T08:52:40;2.30;99.90
10968;DHT22;5536;49.602;10.980;2023-11-18T08:55:10;2.40;99.90
10968;DHT22;5536;49.602;10.980;2023-11-18T08:57:44;2.50;99.90
10968;DHT22;5536;49.602;10.980;2023-11-18T09:00:27;2.50;99.90
10968;DHT22;5536;49.602;10.980;2023-11-18T09:03:12;2.60;99.90
10968;DHT22;5536;49.602;10.980;2023-11-18T09:05:51;2.70;99.90
10968;DHT22;5536;49.602;10.980;2023-11-18T09:08:27;2.90;99.90
10968;DHT22;5536;49.602;10.980;2023-11-18T09:10:55;3.00;99.90
10968;DHT22;5536;49.602;10.980;2023-11-18T09:13:24;3.10;99.90
10968;DHT22;5536;49.602;10.980;2023-11-18T09:15:56;3.10;99.90
10968;DHT22;5536;49.602;10.980;2023-11-18T09:18:23;3.20;99.90
10968;DHT22;5536;49.602;10.980;2023-11-18T09:20:51;3.40;99.90
10968;DHT22;5536;49.602;10.980;2023-11-18T09:23:21;3.50;99.90
10968;DHT22;5536;49.602;10.980;2023-11-18T09:25:49;3.60;99.90
10968;DHT22;5536;49.602;10.980;2023-11-18T09:28:16;3.60;99.90
10968;DHT22;5536;49.602;10.980;2023-11-18T09:30:45;3.60;99.90
10968;DHT22;5536;49.602;10.980;2023-11-18T09:33:21;3.60;99.90
10968;DHT22;5536;49.602;10.980;2023-11-18T09:35:58;3.50;99.90
10968;DHT22;5536;49.602;10.980;2023-11-18T09:38:26;3.50;99.90
10968;DHT22;5536;49.602;10.980;2023-11-18T09:40:55;3.50;99.90
10968;DHT22;5536;49.602;10.980;2023-11-18T09:43:23;3.50;99.90
10968;DHT22;5536;49.602;10.980;2023-11-18T09:45:55;3.40;99.90
10968;DHT22;5536;49.602;10.980;2023-11-18T09:48:23;3.40;99.90
10968;DHT22;5536;49.602;10.980;2023-11-18T09:50:52;3.50;99.90
10968;DHT22;5536;49.602;10.980;2023-11-18T09:53:20;3.60;99.90
10968;DHT22;5536;49.602;10.980;2023-11-18T09:55:56;3.60;99.90
10968;DHT22;5536;49.602;10.980;2023-11-18T09:58:34;3.60;99.90
10968;DHT22;5536;49.602;10.980;2023-11-18T10:01:07;3.70;99.90
10968;DHT22;5536;49.602;10.980;2023-11-18T10:03:41;3.90;99.90
10968;DHT22;5536;49.602;10.980;2023-11-18T10:06:11;4.00;99.90
10968;DHT22;5536;49.602;10.980;2023-11-18T10:08:40;4.20;99.90
10968;DHT22;5536;49.602;10.980;2023-11-18T10:11:11;4.40;99.90
10968;DHT22;5536;49.602;10.980;2023-11-18T10:13:39;4.50;99.90
10968;DHT22;5536;49.602;10.980;2023-11-18T10:16:09;4.70;99.90
10968;DHT22;5536;49.602;10.980;2023-11-18T10:18:41;4.60;99.90
10968;DHT22;5536;49.602;10.980;2023-11-18T10:21:14;4.70;99.90
10968;DHT22;5536;49.602;10.980;2023-11-18T10:24:00;4.80;99.90
10968;DHT22;5536;49.602;10.980;2023-11-18T10:26:28;4.70;99.90
10968;DHT22;5536;49.602;10.980;2023-11-18T10:29:03;4.80;99.90
10968;DHT22;5536;49.602;10.980;2023-11-18T10:31:33;4.90;99.90
10968;DHT22;5536;49.602;10.980;2023-11-18T10:34:04;4.90;99.90
10968;DHT22;5536;49.602;10.980;2023-11-18T10:36:33;4.90;99.90
10968;DHT22;5536;49.602;10.980;2023-11-18T10:39:02;4.90;99.90
10968;DHT22;5536;49.602;10.980;2023-11-18T10:41:42;4.90;99.90
10968;DHT22;5536;49.602;10.980;2023-11-18T10:44:13;5.10;99.90
10968;DHT22;5536;49.602;10.980;2023-11-18T10:46:50;5.20;99.90
10968;DHT22;5536;49.602;10.980;2023-11-18T10:49:20;5.20;99.90
10968;DHT22;5536;49.602;10.980;2023-11-18T10:51:47;5.20;99.90
10968;DHT22;5536;49.602;10.980;2023-11-18T10:54:14;5.20;99.90
10968;DHT22;5536;49.602;10.980;2023-11-18T10:56:46;5.20;99.90
10968;DHT22;5536;49.602;10.980;2023-11-18T10:59:14;5.10;99.90
10968;DHT22;5536;49.602;10.980;2023-11-18T11:01:43;5.10;99.90
10968;DHT22;5536;49.602;10.980;2023-11-18T11:04:11;5.10;99.90
10968;DHT22;5536;49.602;10.980;2023-11-18T11:06:43;5.10;99.90
10968;DHT22;5536;49.602;10.980;2023-11-18T11:09:17;5.10;99.90
10968;DHT22;5536;49.602;10.980;2023-11-18T11:11:49;5.20;99.90
10968;DHT22;5536;49.602;10.980;2023-11-18T11:14:17;5.20;99.90
10968;DHT22;5536;49.602;10.980;2023-11-18T11:16:54;5.20;99.90
10968;DHT22;5536;49.602;10.980;2023-11-18T11:19:25;5.30;99.90
10968;DHT22;5536;49.602;10.980;2023-11-18T11:22:03;5.50;99.90
10968;DHT22;5536;49.602;10.980;2023-11-18T11:24:46;5.50;99.90
10968;DHT22;5536;49.602;10.980;2023-11-18T11:27:22;5.60;99.90
10968;DHT22;5536;49.602;10.980;2023-11-18T11:30:04;5.80;99.90
10968;DHT22;5536;49.602;10.980;2023-11-18T11:32:39;5.90;99.90
10968;DHT22;5536;49.602;10.980;2023-11-18T11:35:19;6.00;99.90
10968;DHT22;5536;49.602;10.980;2023-11-18T11:37:50;6.10;99.90
10968;DHT22;5536;49.602;10.980;2023-11-18T11:40:21;6.40;99.90
10968;DHT22;5536;49.602;10.980;2023-11-18T11:42:50;6.50;99.90
10968;DHT22;5536;49.602;10.980;2023-11-18T11:45:22;6.70;99.90
10968;DHT22;5536;49.602;10.980;2023-11-18T11:47:55;6.90;99.90
10968;DHT22;5536;49.602;10.980;2023-11-18T11:53:46;7.00;99.90
10968;DHT22;5536;49.602;10.980;2023-11-18T11:56:14;7.00;99.90
10968;DHT22;5536;49.602;10.980;2023-11-18T11:58:47;7.00;99.90
10968;DHT22;5536;49.602;10.980;2023-11-18T12:01:25;7.00;99.90
10968;DHT22;5536;49.602;10.980;2023-11-18T12:03:59;7.10;99.90
10968;DHT22;5536;49.602;10.980;2023-11-18T12:06:32;7.30;99.90
10968;DHT22;5536;49.602;10.980;2023-11-18T12:09:03;7.70;99.90
10968;DHT22;5536;49.602;10.980;2023-11-18T12:11:33;8.10;99.90
10968;DHT22;5536;49.602;10.980;2023-11-18T12:14:03;8.20;99.90
10968;DHT22;5536;49.602;10.980;2023-11-18T12:17:03;8.40;99.90
10968;DHT22;5536;49.602;10.980;2023-11-18T12:19:39;8.40;99.90
10968;DHT22;5536;49.602;10.980;2023-11-18T12:22:14;8.20;99.90
10968;DHT22;5536;49.602;10.980;2023-11-18T12:28:13;8.20;99.90
10968;DHT22;5536;49.602;10.980;2023-11-18T12:30:43;8.10;99.90
10968;DHT22;5536;49.602;10.980;2023-11-18T12:33:22;8.00;99.90
10968;DHT22;5536;49.602;10.980;2023-11-18T12:42:06;7.90;99.90
10968;DHT22;5536;49.602;10.980;2023-11-18T12:44:39;7.60;99.90
10968;DHT22;5536;49.602;10.980;2023-11-18T12:47:12;7.60;99.90
10968;DHT22;5536;49.602;10.980;2023-11-18T12:49:44;7.70;99.90
10968;DHT22;5536;49.602;10.980;2023-11-18T12:52:16;7.70;99.90
10968;DHT22;5536;49.602;10.980;2023-11-18T12:54:44;7.60;99.90
10968;DHT22;5536;49.602;10.980;2023-11-18T12:57:19;7.60;99.90
10968;DHT22;5536;49.602;10.980;2023-11-18T12:59:49;7.60;99.90
10968;DHT22;5536;49.602;10.980;2023-11-18T13:02:16;7.50;99.90
10968;DHT22;5536;49.602;10.980;2023-11-18T13:04:45;7.50;99.90
10968;DHT22;5536;49.602;10.980;2023-11-18T13:07:13;7.40;99.90
10968;DHT22;5536;49.602;10.980;2023-11-18T13:09:40;7.40;99.90
10968;DHT22;5536;49.602;10.980;2023-11-18T13:12:10;7.40;99.90
10968;DHT22;5536;49.602;10.980;2023-11-18T13:14:42;7.40;99.90
10968;DHT22;5536;49.602;10.980;2023-11-18T13:17:11;7.50;99.90
10968;DHT22;5536;49.602;10.980;2023-11-18T13:19:38;7.50;99.90
10968;DHT22;5536;49.602;10.980;2023-11-18T13:22:07;7.50;99.90
10968;DHT22;5536;49.602;10.980;2023-11-18T13:24:34;7.60;99.90
10968;DHT22;5536;49.602;10.980;2023-11-18T13:27:02;7.60;99.90
10968;DHT22;5536;49.602;10.980;2023-11-18T13:29:30;7.70;99.90
10968;DHT22;5536;49.602;10.980;2023-11-18T13:31:59;7.60;99.90
10968;DHT22;5536;49.602;10.980;2023-11-18T13:34:34;7.60;99.90
10968;DHT22;5536;49.602;10.980;2023-11-18T13:37:03;7.70;99.90
10968;DHT22;5536;49.602;10.980;2023-11-18T13:39:31;7.70;99.90
10968;DHT22;5536;49.602;10.980;2023-11-18T13:42:18;7.70;99.90
10968;DHT22;5536;49.602;10.980;2023-11-18T13:44:45;7.80;99.90
10968;DHT22;5536;49.602;10.980;2023-11-18T13:47:17;7.90;99.90
10968;DHT22;5536;49.602;10.980;2023-11-18T13:49:49;7.90;99.90
10968;DHT22;5536;49.602;10.980;2023-11-18T13:52:18;7.90;99.90
10968;DHT22;5536;49.602;10.980;2023-11-18T13:54:47;7.80;99.90
10968;DHT22;5536;49.602;10.980;2023-11-18T13:57:15;7.80;99.90
10968;DHT22;5536;49.602;10.980;2023-11-18T13:59:42;7.70;99.90
10968;DHT22;5536;49.602;10.980;2023-11-18T14:02:10;7.70;99.90
10968;DHT22;5536;49.602;10.980;2023-11-18T14:04:42;7.70;99.90
10968;DHT22;5536;49.602;10.980;2023-11-18T14:07:15;7.70;99.90
10968;DHT22;5536;49.602;10.980;2023-11-18T14:09:43;7.70;99.90
10968;DHT22;5536;49.602;10.980;2023-11-18T14:12:11;7.60;99.90
10968;DHT22;5536;49.602;10.980;2023-11-18T14:14:39;7.60;99.90
10968;DHT22;5536;49.602;10.980;2023-11-18T14:17:06;7.60;99.90
10968;DHT22;5536;49.602;10.980;2023-11-18T14:19:35;7.60;99.90
10968;DHT22;5536;49.602;10.980;2023-11-18T14:22:05;7.50;99.90
10968;DHT22;5536;49.602;10.980;2023-11-18T14:24:32;7.50;99.90
10968;DHT22;5536;49.602;10.980;2023-11-18T14:26:59;7.50;99.90
10968;DHT22;5536;49.602;10.980;2023-11-18T14:29:27;7.50;99.90
10968;DHT22;5536;49.602;10.980;2023-11-18T14:31:54;7.50;99.90
10968;DHT22;5536;49.602;10.980;2023-11-18T14:34:21;7.50;99.90
10968;DHT22;5536;49.602;10.980;2023-11-18T14:36:49;7.50;99.90
10968;DHT22;5536;49.602;10.980;2023-11-18T14:39:18;7.50;99.90
10968;DHT22;5536;49.602;10.980;2023-11-18T14:41:48;7.40;99.90
10968;DHT22;5536;49.602;10.980;2023-11-18T14:44:15;7.40;99.90
10968;DHT22;5536;49.602;10.980;2023-11-18T14:46:43;7.40;99.90
10968;DHT22;5536;49.602;10.980;2023-11-18T14:49:11;7.30;99.90
10968;DHT22;5536;49.602;10.980;2023-11-18T14:51:38;7.30;99.90
10968;DHT22;5536;49.602;10.980;2023-11-18T14:54:05;7.30;99.90
10968;DHT22;5536;49.602;10.980;2023-11-18T14:56:35;7.20;99.90
10968;DHT22;5536;49.602;10.980;2023-11-18T14:59:02;7.20;99.90
10968;DHT22;5536;49.602;10.980;2023-11-18T15:01:30;7.20;99.90
10968;DHT22;5536;49.602;10.980;2023-11-18T15:04:00;7.10;99.90
10968;DHT22;5536;49.602;10.980;2023-11-18T15:06:31;7.10;99.90
10968;DHT22;5536;49.602;10.980;2023-11-18T15:08:58;7.10;99.90
10968;DHT22;5536;49.602;10.980;2023-11-18T15:11:25;7.10;99.90
10968;DHT22;5536;49.602;10.980;2023-11-18T15:13:53;7.00;99.90
10968;DHT22;5536;49.602;10.980;2023-11-18T15:16:21;7.00;99.90
10968;DHT22;5536;49.602;10.980;2023-11-18T15:18:48;7.00;99.90
10968;DHT22;5536;49.602;10.980;2023-11-18T15:21:18;7.00;99.90
10968;DHT22;5536;49.602;10.980;2023-11-18T15:23:45;7.00;99.90
10968;DHT22;5536;49.602;10.980;2023-11-18T15:26:13;7.00;99.90
10968;DHT22;5536;49.602;10.980;2023-11-18T15:28:41;7.00;99.90
10968;DHT22;5536;49.602;10.980;2023-11-18T15:31:09;7.00;99.90
10968;DHT22;5536;49.602;10.980;2023-11-18T15:33:37;7.00;99.90
10968;DHT22;5536;49.602;10.980;2023-11-18T15:36:05;6.90;99.90
10968;DHT22;5536;49.602;10.980;2023-11-18T15:38:33;6.90;99.90
10968;DHT22;5536;49.602;10.980;2023-11-18T15:41:01;6.90;99.90
10968;DHT22;5536;49.602;10.980;2023-11-18T15:43:28;7.00;99.90
10968;DHT22;5536;49.602;10.980;2023-11-18T15:45:55;6.90;99.90
10968;DHT22;5536;49.602;10.980;2023-11-18T15:48:25;7.00;99.90
10968;DHT22;5536;49.602;10.980;2023-11-18T15:50:52;6.90;99.90
10968;DHT22;5536;49.602;10.980;2023-11-18T15:53:21;6.90;99.90
10968;DHT22;5536;49.602;10.980;2023-11-18T15:55:48;6.90;99.90
10968;DHT22;5536;49.602;10.980;2023-11-18T15:58:15;6.90;99.90
10968;DHT22;5536;49.602;10.980;2023-11-18T16:00:44;6.90;99.90
10968;DHT22;5536;49.602;10.980;2023-11-18T16:03:11;6.90;99.90
10968;DHT22;5536;49.602;10.980;2023-11-18T16:05:40;6.90;99.90
10968;DHT22;5536;49.602;10.980;2023-11-18T16:08:07;6.80;99.90
10968;DHT22;5536;49.602;10.980;2023-11-18T16:10:36;6.80;99.90